Aérodrome :







RETROUVEZ-NOUS SUR...

 
LOGIN :

S'inscrire | Disclaimer

   EN    FR    IT 

 









Légende :    VFR   VFR Marginal   IFR   IFR Intensif   IFR Très Intensif
Visi : 
Plafond : 
>= 8 km
>= 3000ft
5 à 8 km
1000 à 3000 ft
1500m à 5 km
500 à 1000 ft
800 à 1500m
200 à 500 ft
< 800m
< 200 ft
Symboles :   Orages  Brouillard  Fortes neiges  Fortes précipitations  Vent > 20 kt






- Altitude de l'aérodrome : 271 ft


KBAF - Barnes Municipal

DERNIER METAR :
  • 250353Z AUTO 36004KT 10SM OVC018 01/M02 A3035 RMK AO2 SLP284 T00111022

METARs EXPIRÉS :
  • 250253Z 03003KT 10SM OVC017 00/M03 A3038 RMK AO2 SLP293 T00001028 51008
  • 250235Z 02003KT 10SM BKN018 M02/M05 A3038 RMK AO2 T10171050
  • 250153Z 02006KT 10SM CLR M02/M06 A3038 RMK AO2 SLP294 T10221056

TAF KBAF
Valide du 25 à 00h jusqu'au 26 à 00h UTC


242333Z 2500/2524 04004KT P6SM SCT250
FM250600 03005KT P6SM BKN015
FM251500 05007KT P6SM OVC012
FM251800 06008KT 5SM -SHRA BR OVC007
FM252100 06008KT 2SM -SHRA BR SCT003 OVC006



MET'MAP, la Météo Aéronautique d'un coup d'oeil ! - Copyright ORBIFLY Décembre 2007 - Disclaimer

ORBIFLY MET'MAP TEAM :

Programmation & Développement : Alexandra Zaïnal
Sur une idée originale de : Baudouin d'Aumeries
Assistance à la programmation : Marc-Olivier Méhu
Soutien technique & logistique : Manuel Goepfert

Contact : metmap@orbifly.com




SOURCES & CREDITS :

   NOAA